createdAt,value
2022-12-23T00:01:13.854Z,7.45
2022-12-23T00:03:40.487Z,7.00
2022-12-23T00:06:15.469Z,8.13
2022-12-23T00:08:42.528Z,8.77
2022-12-23T00:11:16.027Z,8.73
2022-12-23T00:14:01.551Z,9.03
2022-12-23T00:16:28.112Z,8.70
2022-12-23T00:18:54.983Z,8.48
2022-12-23T00:21:22.385Z,9.27
2022-12-23T00:23:50.054Z,9.27
2022-12-23T00:26:27.296Z,8.73
2022-12-23T00:28:56.613Z,9.03
2022-12-23T00:31:23.104Z,9.07
2022-12-23T00:33:50.818Z,9.70
2022-12-23T00:36:27.457Z,9.40
2022-12-23T00:39:13.286Z,9.87
2022-12-23T00:41:58.334Z,10.50
2022-12-23T00:44:24.768Z,9.43
2022-12-23T00:46:51.417Z,10.60
2022-12-23T00:49:37.885Z,10.13
2022-12-23T00:52:05.644Z,9.60
2022-12-23T00:54:32.122Z,8.93
2022-12-23T00:56:59.196Z,10.23
2022-12-23T00:59:25.596Z,10.73
2022-12-23T01:02:10.815Z,8.90
2022-12-23T01:04:56.125Z,10.43
2022-12-23T01:07:23.574Z,10.43
2022-12-23T01:09:50.079Z,9.93
2022-12-23T01:12:17.728Z,9.37
2022-12-23T01:14:44.219Z,10.87
2022-12-23T01:17:10.780Z,10.23
2022-12-23T01:19:37.242Z,10.30
2022-12-23T01:22:03.833Z,10.40
2022-12-23T01:24:31.055Z,10.80
2022-12-23T01:26:57.567Z,10.50
2022-12-23T01:29:24.603Z,10.13
2022-12-23T01:31:51.052Z,9.90
2022-12-23T01:34:17.801Z,9.57
2022-12-23T01:36:44.345Z,10.70
2022-12-23T01:39:10.858Z,9.57
2022-12-23T01:41:55.886Z,9.90
2022-12-23T01:45:00.648Z,10.10
2022-12-23T01:47:32.420Z,9.53
2022-12-23T01:50:09.699Z,10.83
2022-12-23T01:52:42.093Z,10.13
2022-12-23T01:55:09.096Z,9.67
2022-12-23T01:57:36.729Z,10.30
2022-12-23T02:00:22.796Z,10.37
2022-12-23T02:03:09.952Z,9.50
2022-12-23T02:05:36.928Z,9.83
2022-12-23T02:08:21.879Z,9.37
2022-12-23T02:11:24.884Z,10.30
2022-12-23T02:14:22.045Z,9.43
2022-12-23T02:16:55.756Z,9.40
2022-12-23T02:19:44.581Z,8.73
2022-12-23T02:22:31.003Z,9.07
2022-12-23T02:25:06.476Z,9.70
2022-12-23T02:27:40.340Z,9.27
2022-12-23T02:30:29.173Z,9.83
2022-12-23T02:33:03.958Z,8.80
2022-12-23T02:35:44.249Z,9.30
2022-12-23T02:38:27.344Z,9.13
2022-12-23T02:41:04.490Z,9.80
2022-12-23T02:43:50.369Z,8.57
2022-12-23T02:46:24.180Z,8.67
2022-12-23T02:48:54.903Z,8.53
2022-12-23T02:51:25.777Z,8.57
2022-12-23T02:53:55.465Z,9.00
2022-12-23T02:56:23.779Z,8.93
2022-12-23T02:59:06.824Z,8.93
2022-12-23T03:01:33.976Z,8.90
2022-12-23T03:04:00.686Z,9.57
2022-12-23T03:06:30.496Z,9.30
2022-12-23T03:08:58.718Z,8.50
2022-12-23T03:11:56.532Z,6.83
2022-12-23T03:14:35.087Z,8.83
2022-12-23T03:17:32.891Z,8.23
2022-12-23T03:20:23.994Z,7.53
2022-12-23T03:23:31.446Z,7.73
2022-12-23T03:26:11.324Z,7.87
2022-12-23T03:28:43.327Z,7.33
2022-12-23T03:31:13.363Z,7.23
2022-12-23T03:33:42.826Z,7.50
2022-12-23T03:36:17.441Z,6.70
2022-12-23T03:38:44.949Z,6.20
2022-12-23T03:41:16.584Z,6.17
2022-12-23T03:43:50.962Z,6.47
2022-12-23T03:46:21.416Z,5.70
2022-12-23T03:48:58.865Z,5.53
2022-12-23T03:51:33.353Z,6.10
2022-12-23T03:54:02.371Z,6.50
2022-12-23T03:56:32.768Z,5.47
2022-12-23T03:59:01.727Z,5.93
2022-12-23T04:01:44.702Z,5.90
2022-12-23T04:04:40.548Z,5.27
2022-12-23T04:07:17.648Z,5.03
2022-12-23T04:09:44.485Z,5.43
2022-12-23T04:12:11.168Z,4.90
2022-12-23T04:14:38.167Z,5.15
2022-12-23T04:17:04.849Z,4.80
2022-12-23T04:19:31.421Z,4.97
2022-12-23T04:21:57.951Z,5.15
2022-12-23T04:24:24.463Z,4.85
2022-12-23T04:26:51.023Z,4.53
2022-12-23T04:29:17.618Z,5.03
2022-12-23T04:31:44.168Z,5.33
2022-12-23T04:34:10.710Z,4.60
2022-12-23T04:36:37.282Z,4.93
2022-12-23T04:39:03.960Z,4.60
2022-12-23T04:41:30.614Z,4.37
2022-12-23T04:43:57.176Z,4.78
2022-12-23T04:46:23.765Z,3.60
2022-12-23T04:48:50.283Z,3.75
2022-12-23T04:51:16.789Z,3.60
2022-12-23T04:53:43.353Z,3.95
2022-12-23T04:56:09.950Z,3.45
2022-12-23T04:58:36.463Z,2.83
2022-12-23T05:01:08.417Z,3.88
2022-12-23T05:03:35.464Z,3.05
2022-12-23T05:06:02.034Z,2.45
2022-12-23T05:08:28.544Z,2.90
2022-12-23T05:10:55.049Z,2.60
2022-12-23T05:13:21.813Z,3.10
2022-12-23T05:15:53.018Z,2.42
2022-12-23T05:18:20.112Z,2.55
2022-12-23T05:20:47.106Z,3.13
2022-12-23T05:23:13.774Z,2.72
2022-12-23T05:25:40.519Z,2.40
2022-12-23T05:28:08.085Z,3.20
2022-12-23T05:30:34.662Z,2.80
2022-12-23T05:33:01.273Z,2.80
2022-12-23T05:35:28.244Z,3.55
2022-12-23T05:38:03.186Z,3.03
2022-12-23T05:40:32.394Z,2.90
2022-12-23T05:43:00.129Z,3.30
2022-12-23T05:45:26.591Z,2.95
2022-12-23T05:47:53.133Z,3.30
2022-12-23T05:50:19.541Z,2.78
2022-12-23T05:52:45.980Z,3.40
2022-12-23T05:55:12.404Z,3.35
2022-12-23T05:57:38.816Z,2.97
2022-12-23T06:00:05.657Z,3.50
2022-12-23T06:02:33.281Z,3.58
2022-12-23T06:05:00.779Z,3.20
2022-12-23T06:07:27.255Z,3.53
2022-12-23T06:09:53.656Z,3.63
2022-12-23T06:12:20.084Z,3.53
2022-12-23T06:14:46.478Z,3.78
2022-12-23T06:17:12.921Z,3.70
2022-12-23T06:19:39.306Z,3.88
2022-12-23T06:22:05.732Z,3.88
2022-12-23T06:24:32.165Z,3.60
2022-12-23T06:26:58.574Z,4.10
2022-12-23T06:29:25.144Z,3.90
2022-12-23T06:31:51.698Z,3.83
2022-12-23T06:34:18.230Z,3.78
2022-12-23T06:36:44.785Z,4.10
2022-12-23T06:39:11.685Z,3.67
2022-12-23T06:41:38.170Z,4.07
2022-12-23T06:44:04.789Z,3.63
2022-12-23T06:46:31.393Z,3.90
2022-12-23T06:48:57.891Z,3.38
2022-12-23T06:51:24.312Z,3.08
2022-12-23T06:53:50.707Z,2.63
2022-12-23T06:56:17.121Z,3.45
2022-12-23T06:58:43.557Z,3.03
2022-12-23T07:01:10.401Z,2.80
2022-12-23T07:03:37.284Z,3.70
2022-12-23T07:06:03.976Z,3.45
2022-12-23T07:08:30.426Z,4.90
2022-12-23T07:11:00.702Z,5.38
2022-12-23T07:13:28.240Z,5.97
2022-12-23T07:15:55.879Z,5.35
2022-12-23T07:18:23.285Z,4.30
2022-12-23T07:20:51.376Z,3.88
2022-12-23T07:23:17.870Z,3.63
2022-12-23T07:25:44.279Z,2.97
2022-12-23T07:28:10.729Z,3.22
2022-12-23T07:30:37.187Z,3.60
2022-12-23T07:33:03.625Z,2.70
2022-12-23T07:35:30.075Z,2.85
2022-12-23T07:37:56.520Z,2.67
2022-12-23T07:40:23.437Z,2.80
2022-12-23T07:42:50.966Z,2.75
2022-12-23T07:45:17.350Z,3.08
2022-12-23T07:47:43.776Z,3.17
2022-12-23T07:50:10.370Z,3.05
2022-12-23T07:52:36.876Z,3.88
2022-12-23T07:55:03.634Z,3.47
2022-12-23T07:57:30.167Z,3.70
2022-12-23T07:59:56.946Z,3.78
2022-12-23T08:02:25.072Z,4.53
2022-12-23T08:04:52.039Z,4.80
2022-12-23T08:07:18.569Z,5.00
2022-12-23T08:09:45.966Z,5.25
2022-12-23T08:12:12.397Z,4.80
2022-12-23T08:14:38.832Z,5.32
2022-12-23T08:17:05.393Z,5.50
2022-12-23T08:19:31.899Z,5.38
2022-12-23T08:21:58.308Z,6.32
2022-12-23T08:24:24.727Z,6.10
2022-12-23T08:26:51.160Z,5.93
2022-12-23T08:29:17.561Z,6.22
2022-12-23T08:31:43.989Z,5.68
2022-12-23T08:34:10.690Z,6.00
2022-12-23T08:36:37.102Z,5.38
2022-12-23T08:39:06.981Z,5.93
2022-12-23T08:41:38.672Z,6.00
2022-12-23T08:44:05.122Z,6.38
2022-12-23T08:46:31.784Z,6.50
2022-12-23T08:48:58.398Z,5.75
2022-12-23T08:51:25.529Z,6.25
2022-12-23T08:53:59.852Z,6.05
2022-12-23T08:56:29.893Z,5.68
2022-12-23T08:58:56.533Z,5.65
2022-12-23T09:01:29.518Z,5.72
2022-12-23T09:03:56.137Z,5.53
2022-12-23T09:06:29.901Z,4.72
2022-12-23T09:08:57.231Z,5.07
2022-12-23T09:11:26.295Z,4.95
2022-12-23T09:13:52.771Z,5.38
2022-12-23T09:16:19.673Z,4.90
2022-12-23T09:18:46.177Z,4.80
2022-12-23T09:21:15.656Z,6.63
2022-12-23T09:23:42.207Z,5.63
2022-12-23T09:26:09.353Z,4.53
2022-12-23T09:28:36.101Z,4.63
2022-12-23T09:31:09.762Z,4.78
2022-12-23T09:33:36.884Z,4.82
2022-12-23T09:36:04.659Z,5.43
2022-12-23T09:38:31.232Z,4.88
2022-12-23T09:41:24.010Z,5.75
2022-12-23T09:43:59.298Z,6.05
2022-12-23T09:46:27.451Z,5.78
2022-12-23T09:49:00.440Z,6.13
2022-12-23T09:51:27.565Z,6.40
2022-12-23T09:54:00.724Z,6.07
2022-12-23T09:56:40.555Z,6.10
2022-12-23T09:59:22.465Z,5.72
2022-12-23T10:01:56.328Z,6.30
2022-12-23T10:04:22.863Z,6.80
2022-12-23T10:06:57.739Z,6.38
2022-12-23T10:09:28.220Z,6.25
2022-12-23T10:11:54.762Z,6.10
2022-12-23T10:14:24.775Z,6.95
2022-12-23T10:16:55.454Z,7.25
2022-12-23T10:19:34.406Z,8.73
2022-12-23T10:22:06.268Z,8.05
2022-12-23T10:24:41.563Z,7.93
2022-12-23T10:27:25.325Z,7.57
2022-12-23T10:29:51.768Z,7.60
2022-12-23T10:32:42.951Z,8.70
2022-12-23T10:35:28.060Z,8.50
2022-12-23T10:38:09.233Z,7.80
2022-12-23T10:40:54.906Z,8.15
2022-12-23T10:43:21.198Z,8.73
2022-12-23T10:46:27.043Z,9.55
2022-12-23T10:49:07.572Z,8.38
2022-12-23T10:51:49.964Z,8.95
2022-12-23T10:54:22.293Z,8.13
2022-12-23T10:56:48.713Z,8.13
2022-12-23T10:59:16.273Z,8.85
2022-12-23T11:01:45.414Z,8.55
2022-12-23T11:04:17.763Z,8.40
2022-12-23T11:06:47.550Z,7.88
2022-12-23T11:09:20.848Z,9.52
2022-12-23T11:12:02.521Z,8.63
2022-12-23T11:14:34.519Z,8.25
2022-12-23T11:17:01.159Z,7.82
2022-12-23T11:19:27.755Z,9.00
2022-12-23T11:21:59.169Z,9.15
2022-12-23T11:24:34.440Z,9.52
2022-12-23T11:27:06.545Z,9.13
2022-12-23T11:29:38.754Z,9.38
2022-12-23T11:32:22.110Z,8.50
2022-12-23T11:34:49.085Z,8.85
2022-12-23T11:37:40.825Z,9.98
2022-12-23T11:40:20.774Z,8.95
2022-12-23T11:42:53.308Z,10.32
2022-12-23T11:45:24.773Z,22.80
2022-12-23T11:47:51.390Z,21.13
2022-12-23T11:50:30.835Z,16.45
2022-12-23T11:53:12.414Z,12.48
2022-12-23T11:55:48.640Z,10.98
2022-12-23T11:58:19.278Z,10.25
2022-12-23T12:00:56.390Z,9.65
2022-12-23T12:03:26.937Z,10.45
2022-12-23T12:05:58.129Z,10.05
2022-12-23T12:08:32.966Z,9.65
2022-12-23T12:11:03.366Z,10.25
2022-12-23T12:13:37.664Z,10.93
2022-12-23T12:16:13.232Z,10.15
2022-12-23T12:18:42.201Z,9.70
2022-12-23T12:21:16.417Z,11.52
2022-12-23T12:23:48.764Z,11.15
2022-12-23T12:26:29.880Z,10.40
2022-12-23T12:29:09.393Z,10.85
2022-12-23T12:31:39.890Z,10.68
2022-12-23T12:34:28.592Z,16.52
2022-12-23T12:37:22.281Z,11.55
2022-12-23T12:39:55.739Z,10.80
2022-12-23T12:42:29.346Z,10.35
2022-12-23T12:45:03.456Z,9.93
2022-12-23T12:47:57.019Z,10.48
2022-12-23T12:50:31.221Z,10.02
2022-12-23T12:53:02.619Z,10.77
2022-12-23T12:55:33.724Z,9.55
2022-12-23T12:58:04.539Z,10.18
2022-12-23T13:00:42.997Z,9.10
2022-12-23T13:03:21.888Z,10.70
2022-12-23T13:05:56.703Z,11.30
2022-12-23T13:08:32.355Z,10.25
2022-12-23T13:11:12.420Z,11.18
2022-12-23T13:13:46.740Z,11.32
2022-12-23T13:16:22.399Z,10.02
2022-12-23T13:19:03.355Z,9.55
2022-12-23T13:21:40.209Z,9.15
2022-12-23T13:24:20.059Z,9.98
2022-12-23T13:27:11.974Z,9.95
2022-12-23T13:30:04.749Z,9.25
2022-12-23T13:33:05.000Z,8.95
2022-12-23T13:35:42.399Z,8.07
2022-12-23T13:38:36.512Z,8.00
2022-12-23T13:41:30.524Z,8.27
2022-12-23T13:44:02.029Z,8.48
2022-12-23T13:46:41.009Z,7.75
2022-12-23T13:49:31.706Z,8.63
2022-12-23T13:52:12.026Z,8.10
2022-12-23T13:54:56.328Z,8.23
2022-12-23T13:57:43.349Z,8.50
2022-12-23T14:00:18.780Z,8.30
2022-12-23T14:03:01.943Z,8.98
2022-12-23T14:05:31.947Z,8.93
2022-12-23T14:08:04.600Z,8.40
2022-12-23T14:10:31.309Z,9.10
2022-12-23T14:13:06.309Z,8.18
2022-12-23T14:15:54.514Z,8.75
2022-12-23T14:18:21.902Z,9.95
2022-12-23T14:21:16.516Z,10.05
2022-12-23T14:24:11.056Z,10.05
2022-12-23T14:27:14.866Z,12.60
2022-12-23T14:30:09.826Z,11.05
2022-12-23T14:32:44.152Z,10.50
2022-12-23T14:35:38.496Z,9.65
2022-12-23T14:38:14.740Z,9.43
2022-12-23T14:41:02.262Z,9.30
2022-12-23T14:43:51.078Z,9.40
2022-12-23T14:46:35.903Z,9.82
2022-12-23T14:49:37.133Z,9.85
2022-12-23T14:51:50.975Z,10.30
2022-12-23T14:54:18.736Z,10.32
2022-12-23T14:56:57.758Z,10.48
2022-12-23T14:59:39.116Z,10.00
2022-12-23T15:02:19.050Z,9.93
2022-12-23T15:04:49.549Z,10.45
2022-12-23T15:07:29.693Z,11.10
2022-12-23T15:10:01.085Z,9.57
2022-12-23T15:12:42.236Z,10.52
2022-12-23T15:15:26.119Z,9.75
2022-12-23T15:18:03.511Z,9.55
2022-12-23T15:20:30.270Z,10.68
2022-12-23T15:23:00.311Z,11.30
2022-12-23T15:25:29.385Z,11.43
2022-12-23T15:28:01.545Z,12.27
2022-12-23T15:30:32.497Z,13.65
2022-12-23T15:33:02.247Z,14.10
2022-12-23T15:35:31.655Z,13.32
2022-12-23T15:37:59.105Z,11.98
2022-12-23T15:40:33.817Z,12.90
2022-12-23T15:43:01.405Z,12.00
2022-12-23T15:45:37.244Z,12.38
2022-12-23T15:48:05.925Z,12.57
2022-12-23T15:50:41.693Z,11.93
2022-12-23T15:53:09.612Z,11.98
2022-12-23T15:55:37.342Z,12.80
2022-12-23T15:58:04.162Z,12.00
2022-12-23T16:00:42.083Z,12.13
2022-12-23T16:03:25.686Z,12.20
2022-12-23T16:05:52.499Z,12.75
2022-12-23T16:08:29.609Z,13.75
2022-12-23T16:11:18.996Z,12.13
2022-12-23T16:13:59.830Z,12.23
2022-12-23T16:16:32.091Z,13.00
2022-12-23T16:18:58.689Z,13.80
2022-12-23T16:21:29.768Z,12.85
2022-12-23T16:23:56.883Z,12.25
2022-12-23T16:26:23.549Z,13.20
2022-12-23T16:28:53.025Z,13.63
2022-12-23T16:31:21.023Z,15.35
2022-12-23T16:33:53.228Z,15.60
2022-12-23T16:36:33.106Z,13.60
2022-12-23T16:39:08.706Z,13.20
2022-12-23T16:41:35.937Z,12.68
2022-12-23T16:44:03.002Z,12.32
2022-12-23T16:46:34.182Z,13.43
2022-12-23T16:49:04.804Z,13.73
2022-12-23T16:51:34.098Z,12.90
2022-12-23T16:54:01.449Z,13.20
2022-12-23T16:56:33.260Z,11.45
2022-12-23T16:58:59.796Z,10.20
2022-12-23T17:01:29.278Z,11.15
2022-12-23T17:03:58.654Z,10.32
2022-12-23T17:06:25.556Z,10.65
2022-12-23T17:08:53.329Z,9.70
2022-12-23T17:11:36.855Z,9.88
2022-12-23T17:14:07.979Z,10.45
2022-12-23T17:16:38.458Z,10.80
2022-12-23T17:19:05.725Z,11.80
2022-12-23T17:21:39.705Z,11.63
2022-12-23T17:24:20.289Z,10.98
2022-12-23T17:26:46.788Z,11.15
2022-12-23T17:29:13.322Z,11.23
2022-12-23T17:31:41.025Z,11.32
2022-12-23T17:34:11.880Z,11.73
2022-12-23T17:36:41.902Z,11.35
2022-12-23T17:39:11.403Z,10.80
2022-12-23T17:41:40.196Z,11.70
2022-12-23T17:44:07.379Z,11.95
2022-12-23T17:46:34.069Z,11.05
2022-12-23T17:49:00.710Z,11.70
2022-12-23T17:51:27.266Z,11.30
2022-12-23T17:53:57.980Z,11.35
2022-12-23T17:56:27.103Z,12.50
2022-12-23T17:58:53.838Z,12.73
2022-12-23T18:01:25.153Z,11.15
2022-12-23T18:03:52.437Z,10.98
2022-12-23T18:06:21.119Z,10.70
2022-12-23T18:08:47.940Z,11.38
2022-12-23T18:11:24.000Z,11.40
2022-12-23T18:13:52.379Z,9.73
2022-12-23T18:16:19.048Z,10.20
2022-12-23T18:18:46.875Z,10.73
2022-12-23T18:21:18.641Z,11.73
2022-12-23T18:23:45.211Z,12.23
2022-12-23T18:26:17.599Z,9.90
2022-12-23T18:28:44.648Z,10.88
2022-12-23T18:31:19.843Z,11.85
2022-12-23T18:33:47.093Z,11.20
2022-12-23T18:36:27.081Z,10.63
2022-12-23T18:38:53.980Z,10.93
2022-12-23T18:41:21.541Z,9.35
2022-12-23T18:43:48.335Z,9.68
2022-12-23T18:46:14.915Z,9.35
2022-12-23T18:48:41.459Z,9.45
2022-12-23T18:51:13.007Z,7.90
2022-12-23T18:53:39.575Z,8.95
2022-12-23T18:56:06.183Z,8.75
2022-12-23T18:58:32.673Z,9.23
2022-12-23T19:00:59.215Z,9.88
2022-12-23T19:03:26.947Z,9.20
2022-12-23T19:05:54.937Z,9.27
2022-12-23T19:08:26.751Z,9.60
2022-12-23T19:10:54.153Z,9.82
2022-12-23T19:13:20.679Z,9.43
2022-12-23T19:15:47.153Z,8.63
2022-12-23T19:18:18.966Z,9.02
2022-12-23T19:20:46.817Z,8.82
2022-12-23T19:23:13.787Z,9.73
2022-12-23T19:25:41.995Z,9.45
2022-12-23T19:28:09.636Z,9.63
2022-12-23T19:30:36.253Z,9.00
2022-12-23T19:33:03.075Z,9.55
2022-12-23T19:35:30.553Z,9.25
2022-12-23T19:37:57.015Z,8.68
2022-12-23T19:40:23.509Z,8.50
2022-12-23T19:42:50.099Z,9.20
2022-12-23T19:45:17.161Z,8.45
2022-12-23T19:47:43.716Z,8.73
2022-12-23T19:50:11.387Z,8.98
2022-12-23T19:52:38.048Z,8.68
2022-12-23T19:55:04.946Z,8.32
2022-12-23T19:57:31.658Z,8.65
2022-12-23T19:59:58.120Z,8.48
2022-12-23T20:02:24.896Z,8.02
2022-12-23T20:04:51.421Z,9.02
2022-12-23T20:07:18.931Z,7.68
2022-12-23T20:09:45.403Z,7.90
2022-12-23T20:12:11.881Z,8.15
2022-12-23T20:14:38.334Z,7.70
2022-12-23T20:17:04.828Z,7.63
2022-12-23T20:19:31.299Z,7.55
2022-12-23T20:21:57.766Z,7.50
2022-12-23T20:24:24.281Z,7.28
2022-12-23T20:26:50.883Z,7.47
2022-12-23T20:29:17.505Z,7.40
2022-12-23T20:31:44.153Z,6.78
2022-12-23T20:34:14.572Z,6.75
2022-12-23T20:36:41.139Z,6.25
2022-12-23T20:39:07.689Z,6.47
2022-12-23T20:41:34.258Z,7.30
2022-12-23T20:44:32.988Z,6.78
2022-12-23T20:46:47.346Z,6.70
2022-12-23T20:49:13.917Z,6.97
2022-12-23T20:51:40.423Z,7.63
2022-12-23T20:54:07.926Z,8.13
2022-12-23T20:56:34.362Z,7.90
2022-12-23T20:59:02.751Z,7.57
2022-12-23T21:01:29.227Z,7.03
2022-12-23T21:03:58.439Z,7.22
2022-12-23T21:06:25.302Z,7.47
2022-12-23T21:08:52.414Z,7.95
2022-12-23T21:11:19.297Z,6.78
2022-12-23T21:13:49.692Z,7.13
2022-12-23T21:16:16.727Z,7.45
2022-12-23T21:18:45.434Z,7.88
2022-12-23T21:21:12.425Z,8.13
2022-12-23T21:23:42.609Z,7.82
2022-12-23T21:26:15.385Z,7.30
2022-12-23T21:28:42.959Z,7.20
2022-12-23T21:31:09.967Z,6.68
2022-12-23T21:33:38.660Z,7.28
2022-12-23T21:36:06.549Z,6.88
2022-12-23T21:38:35.180Z,7.20
2022-12-23T21:41:03.694Z,7.60
2022-12-23T21:43:30.510Z,7.10
2022-12-23T21:46:02.089Z,7.38
2022-12-23T21:48:33.649Z,7.10
2022-12-23T21:51:12.131Z,7.00
2022-12-23T21:53:39.997Z,7.70
2022-12-23T21:56:09.405Z,6.97
2022-12-23T21:58:37.537Z,7.82
2022-12-23T22:01:09.244Z,6.75
2022-12-23T22:03:36.532Z,6.50
2022-12-23T22:06:10.677Z,6.32
2022-12-23T22:08:39.112Z,6.47
2022-12-23T22:11:13.341Z,5.65
2022-12-23T22:13:40.655Z,5.75
2022-12-23T22:16:12.070Z,5.30
2022-12-23T22:18:39.699Z,5.60
2022-12-23T22:21:14.853Z,6.05
2022-12-23T22:23:41.868Z,6.63
2022-12-23T22:26:09.911Z,6.15
2022-12-23T22:28:37.294Z,6.30
2022-12-23T22:31:06.107Z,5.53
2022-12-23T22:33:33.211Z,5.47
2022-12-23T22:36:00.908Z,6.20
2022-12-23T22:38:27.810Z,6.35
2022-12-23T22:40:55.293Z,5.90
2022-12-23T22:43:21.776Z,7.18
2022-12-23T22:45:55.821Z,7.47
2022-12-23T22:48:23.003Z,7.93
2022-12-23T22:50:50.553Z,7.85
2022-12-23T22:53:17.092Z,8.00
2022-12-23T22:55:43.547Z,8.60
2022-12-23T22:58:10.024Z,8.18
2022-12-23T23:00:36.528Z,8.23
2022-12-23T23:03:03.671Z,6.85
2022-12-23T23:05:30.187Z,6.53
2022-12-23T23:07:56.734Z,5.60
2022-12-23T23:10:23.199Z,5.88
2022-12-23T23:12:49.712Z,6.55
2022-12-23T23:15:16.196Z,5.63
2022-12-23T23:17:42.667Z,4.82
2022-12-23T23:20:09.626Z,4.55
2022-12-23T23:22:36.090Z,4.90
2022-12-23T23:25:03.741Z,5.13
2022-12-23T23:27:30.214Z,5.07
2022-12-23T23:29:56.727Z,4.47
2022-12-23T23:32:23.245Z,4.75
2022-12-23T23:34:49.776Z,4.07
2022-12-23T23:37:17.226Z,4.10
2022-12-23T23:39:43.722Z,4.45
2022-12-23T23:42:10.685Z,3.85
2022-12-23T23:44:37.182Z,4.50
2022-12-23T23:47:03.657Z,4.00
2022-12-23T23:49:30.143Z,4.15
2022-12-23T23:51:56.576Z,3.97
2022-12-23T23:54:23.067Z,4.55
2022-12-23T23:56:49.544Z,4.63
2022-12-23T23:59:18.035Z,4.28
